• Join FlightAware (Why Join?)
  • Login
  • US Flag 
08:16AM EDT


 

Airport Tracker/Info


-or-


 

Live Flight TrackerFlight Track Log ✈ VNR104 ✈ 13-May-2013 ✈ KEGE - KAUS

Flight Track Log - Related Links

Times and Time Zones

All times are in EDT time to prevent confusion due to time zone crossing. See the VNR104 flight status page for this flight to view local times or setup timezone preferences in your user account.

Time Position Orientation Groundspeed Altitude Reporting Facility
EDT Latitude Longitude Course Direction KTS MPH feet Rate Location/Type
09:37PM 39.9915 -106.4249 143° Southeast  Level FlightAware Approximate
09:37PM 39.6344 -106.9497 131° Southeast 162 186 33,000  Level Denver Center
09:38PM 39.9175 -106.3508 142° Southeast  Level FlightAware Approximate
09:38PM 39.5919 -107.0006 223° Southwest 180 207 9,700  Level Denver Center
09:39PM 39.8435 -106.2768 142° Southeast  Level FlightAware Approximate
09:39PM 39.6303 -107.0272 332° Northwest 194 223 12,000  Level Denver Center
09:40PM 39.7695 -106.2028 142° Southeast  Level FlightAware Approximate
09:40PM 39.6828 -107.0469 344° North 199 229 14,100  Level Denver Center
09:41PM 39.7001 -106.1251 147° Southeast  Level FlightAware Approximate
09:41PM 39.7364 -107.0808 334° Northwest 228 262 14,800  Level Denver Center
09:42PM 39.6279 -106.0502 131° Southeast  Level FlightAware Approximate
09:42PM 39.8039 -107.0064 40° Northeast 321 369 15,300  Level Denver Center
09:43PM 39.8008 -106.8961 92° East 306 352 16,700 1,500 Climbing Denver Center
09:44PM 39.7925 -106.7914 96° East 291 335 18,700 2,040 Climbing Denver Center
09:45PM 39.7750 -106.6556 99° East 272 313 21,400 1,920 Climbing Denver Center
09:46PM 39.7603 -106.5581 101° East 273 314 22,800 720 Climbing Denver Center
09:47PM 39.7408 -106.4506 103° East 304 350 22,900 240 Climbing Denver Center
09:48PM 39.7183 -106.3331 104° East 332 382 23,400 840 Climbing Denver Center
09:49PM 39.6989 -106.2186 102° East 324 373 24,700 1,200 Climbing Denver Center
09:50PM 39.6564 -106.1283 121° Southeast 311 358 25,900 600 Climbing Denver Center
09:52PM 39.5844 -106.0583 143° Southeast 323 372 26,000 120 Climbing Denver Center
09:53PM 39.5233 -105.9967 142° Southeast 340 391 26,200 720 Climbing Denver Center
09:54PM 39.4214 -105.8894 141° Southeast 334 384 27,500 1,200 Climbing Denver Center
09:55PM 39.3500 -105.8161 142° Southeast 328 377 28,700 1,200 Climbing Denver Center
09:56PM 39.2842 -105.7481 141° Southeast 307 353 30,000 1,080 Climbing Denver Center
09:57PM 39.2214 -105.6831 141° Southeast 290 334 31,000 780 Climbing Denver Center
09:58PM 39.1572 -105.6172 141° Southeast 293 337 31,600 120 Climbing Denver Center
09:59PM 39.0889 -105.5483 142° Southeast 307 353 31,300 -300 Descending Denver Center
10:00PM 39.0042 -105.4614 141° Southeast 346 398 31,000 -180 Descending Denver Center
10:01PM 38.9311 -105.3833 140° Southeast 355 409 31,000  Level Denver Center
10:02PM 38.8428 -105.2967 143° Southeast 357 411 31,000  Level Denver Center
10:03PM 38.7428 -105.1947 141° Southeast 359 413 31,000  Level Denver Center
10:04PM 38.6661 -105.1194 143° Southeast 362 417 31,000  Level Denver Center
10:05PM 38.5914 -105.0406 140° Southeast 363 418 31,000  Level Denver Center
10:06PM 38.5025 -104.9517 142° Southeast 362 417 31,000  Level Denver Center
10:07PM 38.4258 -104.8756 142° Southeast 364 419 31,000  Level Denver Center
10:08PM 38.3372 -104.7878 142° Southeast 362 417 31,000  Level Denver Center
10:09PM 38.2603 -104.7150 143° Southeast 360 414 31,000  Level Denver Center
10:10PM 38.1714 -104.6258 142° Southeast 363 418 31,000  Level Denver Center
10:11PM 38.0953 -104.5514 142° Southeast 363 418 31,000  Level Denver Center
10:13PM 38.0197 -104.4761 142° Southeast 361 415 31,000  Level Denver Center
10:14PM 37.9178 -104.3761 142° Southeast 362 417 31,000  Level Denver Center
10:15PM 37.8147 -104.2767 143° Southeast 365 420 31,000  Level Denver Center
10:16PM 37.7378 -104.2025 143° Southeast 364 419 31,000  Level Denver Center
10:17PM 37.6475 -104.1150 142° Southeast 365 420 31,000  Level Denver Center
10:18PM 37.5678 -104.0369 142° Southeast 364 419 31,000  Level Denver Center
10:19PM 37.4836 -103.9561 143° Southeast 373 429 31,000  Level Denver Center
10:20PM 37.3964 -103.8714 142° Southeast 360 414 31,000  Level Denver Center
10:21PM 37.3200 -103.7983 143° Southeast 359 413 31,000  Level Denver Center
10:22PM 37.2442 -103.7250 142° Southeast 359 413 31,000  Level Denver Center
10:23PM 37.1542 -103.6400 143° Southeast 361 415 31,000  Level Denver Center
10:24PM 37.1167 -103.6036 142° Southeast 361 415 31,000  Level Albuquerque Center
10:25PM 37.0400 -103.5322 143° Southeast 360 414 31,000  Level Albuquerque Center
10:26PM 36.9508 -103.4472 143° Southeast 360 414 31,000  Level Albuquerque Center
10:27PM 36.8744 -103.3750 143° Southeast 359 413 31,000  Level Albuquerque Center
10:28PM 36.7847 -103.2914 143° Southeast 361 415 31,000  Level Albuquerque Center
10:29PM 36.7089 -103.2197 143° Southeast 358 412 31,000  Level Albuquerque Center
10:30PM 36.6325 -103.1469 143° Southeast 358 412 31,000  Level Albuquerque Center
10:31PM 36.5528 -103.0731 143° Southeast 356 410 31,000  Level Albuquerque Center
10:32PM 36.4589 -102.9842 143° Southeast 358 412 31,000  Level Albuquerque Center
10:33PM 36.3783 -102.9108 144° Southeast 357 411 31,000  Level Albuquerque Center
10:34PM 36.2961 -102.8339 143° Southeast 359 413 31,000  Level Albuquerque Center
10:35PM 36.2164 -102.7603 143° Southeast 358 412 31,000  Level Albuquerque Center
10:36PM 36.1364 -102.6861 143° Southeast 359 413 31,000  Level Albuquerque Center
10:37PM 36.0561 -102.6131 144° Southeast 359 413 31,000  Level Albuquerque Center
10:38PM 35.9753 -102.5378 143° Southeast 363 418 31,000  Level Albuquerque Center
10:39PM 35.8947 -102.4636 143° Southeast 362 417 31,000  Level Albuquerque Center
10:40PM 35.8131 -102.3889 143° Southeast 365 420 31,000  Level Albuquerque Center
10:41PM 35.7319 -102.3164 144° Southeast 363 418 31,000  Level Albuquerque Center
10:42PM 35.6353 -102.2272 143° Southeast 363 418 31,000  Level Albuquerque Center
10:43PM 35.5544 -102.1547 144° Southeast 362 417 31,000  Level Albuquerque Center
10:44PM 35.4739 -102.0819 144° Southeast 361 415 31,000  Level Albuquerque Center
10:45PM 35.3942 -102.0106 144° Southeast 359 413 31,000  Level Albuquerque Center
10:46PM 35.3183 -101.9425 144° Southeast 359 413 31,000  Level Albuquerque Center
10:47PM 35.2233 -101.8558 143° Southeast 360 414 31,000  Level Albuquerque Center
10:48PM 35.1428 -101.7836 144° Southeast 358 412 31,000  Level Albuquerque Center
10:49PM 35.0606 -101.7119 144° Southeast 359 413 31,000  Level Albuquerque Center
10:50PM 34.9806 -101.6386 143° Southeast 355 409 31,000  Level Albuquerque Center
10:51PM 34.9006 -101.5681 144° Southeast 361 415 31,000  Level Albuquerque Center
10:52PM 34.8206 -101.4967 144° Southeast 358 412 31,000  Level Albuquerque Center
10:53PM 34.7397 -101.4256 144° Southeast 359 413 31,000  Level Albuquerque Center
10:54PM 34.6611 -101.3544 143° Southeast 356 410 31,000  Level Albuquerque Center
10:55PM 34.5806 -101.2853 145° Southeast 355 409 31,000  Level Albuquerque Center
10:56PM 34.4844 -101.2006 144° Southeast 355 409 31,000  Level Albuquerque Center
10:57PM 34.4047 -101.1317 145° Southeast 354 407 31,000  Level Albuquerque Center
10:58PM 34.3247 -101.0619 144° Southeast 354 407 31,000  Level Albuquerque Center
10:59PM 34.2458 -100.9928 144° Southeast 352 405 31,000  Level Albuquerque Center
11:00PM 34.1667 -100.9236 144° Southeast 351 404 31,000  Level Albuquerque Center
11:01PM 34.0875 -100.8547 144° Southeast 352 405 31,000  Level Albuquerque Center
11:02PM 34.0006 -100.7831 146° Southeast 348 400 31,000  Level Fort Worth Center
11:03PM 33.9253 -100.7100 141° Southeast 348 400 31,000  Level Fort Worth Center
11:04PM 33.8478 -100.6472 146° Southeast 348 400 31,000  Level Fort Worth Center
11:05PM 33.7658 -100.5817 146° Southeast 348 400 31,000  Level Fort Worth Center
11:06PM 33.6903 -100.5139 143° Southeast 348 400 31,000  Level Fort Worth Center
11:07PM 33.6106 -100.4464 145° Southeast 348 400 31,000  Level Fort Worth Center
11:08PM 33.5328 -100.3839 146° Southeast 348 400 31,000  Level Fort Worth Center
11:09PM 33.4572 -100.3164 143° Southeast 343 395 31,000  Level Fort Worth Center
11:10PM 33.3814 -100.2519 145° Southeast 343 395 31,000  Level Fort Worth Center
11:11PM 33.3017 -100.1847 145° Southeast 348 400 31,000  Level Fort Worth Center
11:12PM 33.2278 -100.1203 144° Southeast 348 400 31,000  Level Fort Worth Center
11:13PM 33.1478 -100.0558 146° Southeast 348 400 31,000  Level Fort Worth Center
11:14PM 33.0719 -99.9892 144° Southeast 348 400 31,000  Level Fort Worth Center
11:15PM 32.9961 -99.9250 145° Southeast 348 400 31,000  Level Fort Worth Center
11:16PM 32.9181 -99.8583 144° Southeast 348 400 31,000  Level Fort Worth Center
11:17PM 32.8339 -99.7844 144° Southeast 348 400 31,000  Level Fort Worth Center
11:18PM 32.7536 -99.7181 145° Southeast 348 400 31,000  Level Fort Worth Center
11:19PM 32.6714 -99.6542 147° Southeast 348 400 31,000  Level Fort Worth Center
11:20PM 32.5931 -99.5906 146° Southeast 348 400 31,000  Level Fort Worth Center
11:21PM 32.5108 -99.5222 145° Southeast 348 400 31,000  Level Fort Worth Center
11:22PM 32.4325 -99.4589 146° Southeast 348 400 31,000  Level Fort Worth Center
11:23PM 32.3481 -99.3906 146° Southeast 355 409 31,000  Level Fort Worth Center
11:24PM 32.2678 -99.3225 144° Southeast 355 409 31,000  Level Fort Worth Center
11:25PM 32.1872 -99.2569 145° Southeast 355 409 31,000 -60 Level Fort Worth Center
11:26PM 32.1047 -99.1914 146° Southeast 355 409 30,900 -360 Descending Fort Worth Center
11:27PM 32.0200 -99.1211 145° Southeast 360 414 30,300 -600 Descending Fort Worth Center
11:28PM 31.9353 -99.0536 146° Southeast 366 421 29,800 -600 Descending Fort Worth Center
11:29PM 31.8486 -98.9836 146° Southeast 366 421 29,200 -300 Descending Fort Worth Center
11:31PM 31.7142 -98.8714 145° Southeast 375 432 29,000 -120 Descending Houston Center
11:32PM 31.6294 -98.8025 145° Southeast 368 423 29,000  Level Houston Center
11:33PM 31.5461 -98.7364 146° Southeast 360 414 29,000  Level Houston Center
11:34PM 31.4639 -98.6694 145° Southeast 358 412 29,000  Level Houston Center
11:35PM 31.3797 -98.6033 146° Southeast 359 413 29,000 -780 Level Houston Center
11:36PM 31.2928 -98.5336 146° Southeast 373 429 27,500 -1,560 Descending Houston Center
11:37PM 31.2083 -98.4653 145° Southeast 368 423 25,900 -1,680 Descending Houston Center
11:38PM 31.1250 -98.3986 146° Southeast 361 415 24,200 -1,680 Descending Houston Center
11:39PM 31.0417 -98.3328 146° Southeast 359 413 22,600 -1,740 Descending Houston Center
11:40PM 30.9589 -98.2678 146° Southeast 356 410 20,700 -1,980 Descending Houston Center
11:41PM 30.8781 -98.2058 147° Southeast 346 398 18,700 -1,920 Descending Houston Center
11:42PM 30.8031 -98.1475 146° Southeast 328 377 16,800 -1,980 Descending Houston Center
11:43PM 30.7314 -98.0903 146° Southeast 312 359 14,800 -2,100 Descending Houston Center
11:44PM 30.6600 -98.0342 146° Southeast 309 356 12,600 -2,220 Descending Houston Center
11:45PM 30.5886 -97.9789 146° Southeast 307 353 10,400 -2,220 Descending Houston Center
11:46PM 30.5214 -97.9258 146° Southeast 296 341 8,200 -2,220 Descending Houston Center
11:47PM 30.4681 -97.8658 136° Southeast 270 311 6,000 -2,220 Descending Houston Center
11:48PM 30.4156 -97.8050 135° Southeast 267 307 3,800 -1,560 Descending Houston Center
11:49PM 30.3717 -97.7519 134° Southeast 248 285 2,900 -480 Descending Houston Center
11:50PM 30.3356 -97.7097 135° Southeast 209 241 2,900 -300 Level Houston Center
11:51PM 30.3036 -97.6678 131° Southeast 188 216 2,400 -660 Descending Houston Center
11:52PM 30.2689 -97.6567 165° South 154 177 1,600 -660 Descending Houston Center
11:53PM 30.2381 -97.6589 184° South 123 142 1,100 -540 Descending Houston Center
11:54PM 30.2031 -97.6589 180° South 115 132 600 -540 Descending Houston Center
11:56PM 30.1945 -97.6699 210° Southwest  Level Estimated
12:03AM 30.1945 -97.6699 210° Southwest  Level Estimated